sensor_id;sensor_type;location;lat;lon;timestamp;P1;durP1;ratioP1;P2;durP2;ratioP2
39222;SDS011;24936;46.328;11.026;2023-08-31T00:00:00;126.20;;;118.53;;
39222;SDS011;24936;46.328;11.026;2023-08-31T00:02:26;130.50;;;122.53;;
39222;SDS011;24936;46.328;11.026;2023-08-31T00:04:51;123.40;;;115.97;;
39222;SDS011;24936;46.328;11.026;2023-08-31T00:07:18;127.28;;;119.63;;
39222;SDS011;24936;46.328;11.026;2023-08-31T00:09:44;128.93;;;121.22;;
39222;SDS011;24936;46.328;11.026;2023-08-31T00:12:10;128.98;;;121.18;;
39222;SDS011;24936;46.328;11.026;2023-08-31T00:14:36;124.15;;;116.72;;
39222;SDS011;24936;46.328;11.026;2023-08-31T00:17:02;127.00;;;119.30;;
39222;SDS011;24936;46.328;11.026;2023-08-31T00:19:28;126.78;;;119.03;;
39222;SDS011;24936;46.328;11.026;2023-08-31T00:21:54;128.15;;;120.20;;
39222;SDS011;24936;46.328;11.026;2023-08-31T00:24:20;125.23;;;117.57;;
39222;SDS011;24936;46.328;11.026;2023-08-31T00:26:50;127.57;;;119.88;;
39222;SDS011;24936;46.328;11.026;2023-08-31T00:29:16;128.57;;;120.63;;
39222;SDS011;24936;46.328;11.026;2023-08-31T00:31:41;127.07;;;119.40;;
39222;SDS011;24936;46.328;11.026;2023-08-31T00:34:09;127.00;;;118.80;;
39222;SDS011;24936;46.328;11.026;2023-08-31T00:36:39;127.45;;;119.65;;
39222;SDS011;24936;46.328;11.026;2023-08-31T00:39:05;127.85;;;120.07;;
39222;SDS011;24936;46.328;11.026;2023-08-31T00:43:57;121.45;;;114.15;;
39222;SDS011;24936;46.328;11.026;2023-08-31T00:46:23;122.03;;;114.72;;
39222;SDS011;24936;46.328;11.026;2023-08-31T00:48:49;130.80;;;122.63;;
39222;SDS011;24936;46.328;11.026;2023-08-31T00:51:14;123.10;;;115.65;;
39222;SDS011;24936;46.328;11.026;2023-08-31T00:53:40;122.32;;;114.60;;
39222;SDS011;24936;46.328;11.026;2023-08-31T00:56:06;117.90;;;110.75;;
39222;SDS011;24936;46.328;11.026;2023-08-31T00:58:33;117.43;;;110.35;;
39222;SDS011;24936;46.328;11.026;2023-08-31T01:03:31;122.28;;;114.80;;
39222;SDS011;24936;46.328;11.026;2023-08-31T01:08:56;122.47;;;115.10;;
39222;SDS011;24936;46.328;11.026;2023-08-31T01:14:20;121.93;;;114.55;;
39222;SDS011;24936;46.328;11.026;2023-08-31T01:16:50;118.43;;;111.25;;
39222;SDS011;24936;46.328;11.026;2023-08-31T01:19:23;115.05;;;107.88;;
39222;SDS011;24936;46.328;11.026;2023-08-31T01:21:54;123.90;;;116.38;;
39222;SDS011;24936;46.328;11.026;2023-08-31T01:24:25;115.35;;;108.53;;
39222;SDS011;24936;46.328;11.026;2023-08-31T01:29:17;112.63;;;105.97;;
39222;SDS011;24936;46.328;11.026;2023-08-31T01:31:44;119.03;;;111.85;;
39222;SDS011;24936;46.328;11.026;2023-08-31T01:37:00;117.68;;;110.57;;
39222;SDS011;24936;46.328;11.026;2023-08-31T01:39:35;121.88;;;114.45;;
39222;SDS011;24936;46.328;11.026;2023-08-31T01:42:11;117.22;;;110.07;;
39222;SDS011;24936;46.328;11.026;2023-08-31T01:44:38;121.80;;;114.43;;
39222;SDS011;24936;46.328;11.026;2023-08-31T01:47:06;120.82;;;113.55;;
39222;SDS011;24936;46.328;11.026;2023-08-31T01:49:35;117.72;;;110.57;;
39222;SDS011;24936;46.328;11.026;2023-08-31T01:52:02;112.72;;;105.93;;
39222;SDS011;24936;46.328;11.026;2023-08-31T01:54:27;111.43;;;104.72;;
39222;SDS011;24936;46.328;11.026;2023-08-31T01:59:19;115.78;;;108.85;;
39222;SDS011;24936;46.328;11.026;2023-08-31T02:01:44;116.50;;;109.53;;
39222;SDS011;24936;46.328;11.026;2023-08-31T02:04:09;113.00;;;106.20;;
39222;SDS011;24936;46.328;11.026;2023-08-31T02:06:35;115.73;;;108.77;;
39222;SDS011;24936;46.328;11.026;2023-08-31T02:09:00;111.40;;;104.73;;
39222;SDS011;24936;46.328;11.026;2023-08-31T02:11:26;118.47;;;111.33;;
39222;SDS011;24936;46.328;11.026;2023-08-31T02:13:51;113.80;;;107.00;;
39222;SDS011;24936;46.328;11.026;2023-08-31T02:16:17;117.32;;;110.32;;
39222;SDS011;24936;46.328;11.026;2023-08-31T02:18:42;117.20;;;110.03;;
39222;SDS011;24936;46.328;11.026;2023-08-31T02:21:07;115.43;;;108.50;;
39222;SDS011;24936;46.328;11.026;2023-08-31T02:23:33;110.80;;;104.10;;
39222;SDS011;24936;46.328;11.026;2023-08-31T02:25:58;117.03;;;110.03;;
39222;SDS011;24936;46.328;11.026;2023-08-31T02:28:24;118.70;;;111.63;;
39222;SDS011;24936;46.328;11.026;2023-08-31T02:30:57;122.50;;;115.23;;
39222;SDS011;24936;46.328;11.026;2023-08-31T02:33:27;120.03;;;112.82;;
39222;SDS011;24936;46.328;11.026;2023-08-31T02:35:53;114.40;;;107.27;;
39222;SDS011;24936;46.328;11.026;2023-08-31T02:38:19;112.00;;;105.18;;
39222;SDS011;24936;46.328;11.026;2023-08-31T02:40:47;113.70;;;106.87;;
39222;SDS011;24936;46.328;11.026;2023-08-31T02:43:13;117.22;;;110.13;;
39222;SDS011;24936;46.328;11.026;2023-08-31T02:45:39;119.05;;;111.88;;
39222;SDS011;24936;46.328;11.026;2023-08-31T02:48:08;119.55;;;112.35;;
39222;SDS011;24936;46.328;11.026;2023-08-31T02:50:34;117.32;;;110.20;;
39222;SDS011;24936;46.328;11.026;2023-08-31T02:53:00;114.30;;;107.43;;
39222;SDS011;24936;46.328;11.026;2023-08-31T02:55:25;120.60;;;113.25;;
39222;SDS011;24936;46.328;11.026;2023-08-31T02:57:51;115.18;;;108.18;;
39222;SDS011;24936;46.328;11.026;2023-08-31T03:00:17;116.80;;;109.75;;
39222;SDS011;24936;46.328;11.026;2023-08-31T03:02:46;118.00;;;110.70;;
39222;SDS011;24936;46.328;11.026;2023-08-31T03:05:12;110.65;;;103.82;;
39222;SDS011;24936;46.328;11.026;2023-08-31T03:07:38;105.90;;;99.53;;
39222;SDS011;24936;46.328;11.026;2023-08-31T03:10:03;111.00;;;104.10;;
39222;SDS011;24936;46.328;11.026;2023-08-31T03:12:29;107.55;;;101.15;;
39222;SDS011;24936;46.328;11.026;2023-08-31T03:14:55;114.35;;;107.53;;
39222;SDS011;24936;46.328;11.026;2023-08-31T03:17:20;119.90;;;112.70;;
39222;SDS011;24936;46.328;11.026;2023-08-31T03:19:46;111.07;;;104.33;;
39222;SDS011;24936;46.328;11.026;2023-08-31T03:22:11;112.67;;;105.97;;
39222;SDS011;24936;46.328;11.026;2023-08-31T03:24:36;115.50;;;108.60;;
39222;SDS011;24936;46.328;11.026;2023-08-31T03:27:02;122.40;;;115.07;;
39222;SDS011;24936;46.328;11.026;2023-08-31T03:29:28;121.07;;;113.80;;
39222;SDS011;24936;46.328;11.026;2023-08-31T03:31:54;131.13;;;123.03;;
39222;SDS011;24936;46.328;11.026;2023-08-31T03:36:45;112.07;;;105.35;;
39222;SDS011;24936;46.328;11.026;2023-08-31T03:39:11;107.67;;;101.27;;
39222;SDS011;24936;46.328;11.026;2023-08-31T03:41:36;113.40;;;106.50;;
39222;SDS011;24936;46.328;11.026;2023-08-31T03:44:01;107.13;;;100.63;;
39222;SDS011;24936;46.328;11.026;2023-08-31T03:46:27;101.17;;;95.17;;
39222;SDS011;24936;46.328;11.026;2023-08-31T03:48:52;99.20;;;93.30;;
39222;SDS011;24936;46.328;11.026;2023-08-31T03:51:18;111.18;;;104.43;;
39222;SDS011;24936;46.328;11.026;2023-08-31T03:53:43;118.77;;;111.50;;
39222;SDS011;24936;46.328;11.026;2023-08-31T03:56:10;100.78;;;94.78;;
39222;SDS011;24936;46.328;11.026;2023-08-31T03:58:36;106.45;;;100.05;;
39222;SDS011;24936;46.328;11.026;2023-08-31T04:01:02;99.95;;;93.95;;
39222;SDS011;24936;46.328;11.026;2023-08-31T04:03:28;109.90;;;103.18;;
39222;SDS011;24936;46.328;11.026;2023-08-31T04:05:54;112.60;;;105.90;;
39222;SDS011;24936;46.328;11.026;2023-08-31T04:08:20;106.18;;;99.70;;
39222;SDS011;24936;46.328;11.026;2023-08-31T04:10:46;99.40;;;93.43;;
39222;SDS011;24936;46.328;11.026;2023-08-31T04:13:11;107.10;;;100.63;;
39222;SDS011;24936;46.328;11.026;2023-08-31T04:15:36;99.07;;;93.10;;
39222;SDS011;24936;46.328;11.026;2023-08-31T04:18:02;97.00;;;91.17;;
39222;SDS011;24936;46.328;11.026;2023-08-31T04:20:27;103.87;;;97.57;;
39222;SDS011;24936;46.328;11.026;2023-08-31T04:22:53;101.57;;;95.37;;
39222;SDS011;24936;46.328;11.026;2023-08-31T04:25:19;106.22;;;99.75;;
39222;SDS011;24936;46.328;11.026;2023-08-31T04:27:44;103.80;;;97.53;;
39222;SDS011;24936;46.328;11.026;2023-08-31T04:30:10;104.25;;;97.93;;
39222;SDS011;24936;46.328;11.026;2023-08-31T04:32:36;104.95;;;98.57;;
39222;SDS011;24936;46.328;11.026;2023-08-31T04:35:05;104.50;;;98.20;;
39222;SDS011;24936;46.328;11.026;2023-08-31T04:37:31;96.55;;;90.78;;
39222;SDS011;24936;46.328;11.026;2023-08-31T04:39:57;93.35;;;87.72;;
39222;SDS011;24936;46.328;11.026;2023-08-31T04:42:23;104.17;;;97.87;;
39222;SDS011;24936;46.328;11.026;2023-08-31T04:44:49;97.28;;;91.45;;
39222;SDS011;24936;46.328;11.026;2023-08-31T04:47:15;97.53;;;91.68;;
39222;SDS011;24936;46.328;11.026;2023-08-31T04:49:40;111.83;;;105.13;;
39222;SDS011;24936;46.328;11.026;2023-08-31T04:52:06;98.23;;;92.33;;
39222;SDS011;24936;46.328;11.026;2023-08-31T04:54:31;102.07;;;95.87;;
39222;SDS011;24936;46.328;11.026;2023-08-31T04:56:57;146.37;;;137.13;;
39222;SDS011;24936;46.328;11.026;2023-08-31T04:59:22;98.35;;;92.45;;
39222;SDS011;24936;46.328;11.026;2023-08-31T05:01:48;110.80;;;104.07;;
39222;SDS011;24936;46.328;11.026;2023-08-31T05:04:13;100.07;;;94.00;;
39222;SDS011;24936;46.328;11.026;2023-08-31T05:06:39;102.20;;;96.10;;
39222;SDS011;24936;46.328;11.026;2023-08-31T05:09:04;102.13;;;96.03;;
39222;SDS011;24936;46.328;11.026;2023-08-31T05:11:31;102.28;;;96.00;;
39222;SDS011;24936;46.328;11.026;2023-08-31T05:13:56;101.57;;;95.45;;
39222;SDS011;24936;46.328;11.026;2023-08-31T05:16:22;103.67;;;97.37;;
39222;SDS011;24936;46.328;11.026;2023-08-31T05:18:48;94.60;;;88.80;;
39222;SDS011;24936;46.328;11.026;2023-08-31T05:21:14;98.50;;;92.57;;
39222;SDS011;24936;46.328;11.026;2023-08-31T05:23:40;96.87;;;91.07;;
39222;SDS011;24936;46.328;11.026;2023-08-31T05:26:05;103.28;;;97.05;;
39222;SDS011;24936;46.328;11.026;2023-08-31T05:28:31;105.93;;;99.47;;
39222;SDS011;24936;46.328;11.026;2023-08-31T05:30:57;118.75;;;111.50;;
39222;SDS011;24936;46.328;11.026;2023-08-31T05:33:25;109.57;;;102.85;;
39222;SDS011;24936;46.328;11.026;2023-08-31T05:35:52;107.10;;;100.75;;
39222;SDS011;24936;46.328;11.026;2023-08-31T05:38:18;137.07;;;128.48;;
39222;SDS011;24936;46.328;11.026;2023-08-31T05:40:43;98.00;;;91.97;;
39222;SDS011;24936;46.328;11.026;2023-08-31T05:43:15;110.18;;;103.53;;
39222;SDS011;24936;46.328;11.026;2023-08-31T05:45:41;114.18;;;107.28;;
39222;SDS011;24936;46.328;11.026;2023-08-31T05:48:07;138.60;;;129.85;;
39222;SDS011;24936;46.328;11.026;2023-08-31T05:52:59;115.20;;;108.18;;
39222;SDS011;24936;46.328;11.026;2023-08-31T05:55:24;113.27;;;106.20;;
39222;SDS011;24936;46.328;11.026;2023-08-31T05:57:50;109.80;;;103.23;;
39222;SDS011;24936;46.328;11.026;2023-08-31T06:00:16;104.80;;;98.40;;
39222;SDS011;24936;46.328;11.026;2023-08-31T06:02:43;118.22;;;111.00;;
39222;SDS011;24936;46.328;11.026;2023-08-31T06:05:10;115.95;;;108.93;;
39222;SDS011;24936;46.328;11.026;2023-08-31T06:07:37;116.43;;;109.30;;
39222;SDS011;24936;46.328;11.026;2023-08-31T06:10:03;108.57;;;101.97;;
39222;SDS011;24936;46.328;11.026;2023-08-31T06:12:30;118.35;;;111.07;;
39222;SDS011;24936;46.328;11.026;2023-08-31T06:14:56;116.22;;;109.18;;
39222;SDS011;24936;46.328;11.026;2023-08-31T06:17:21;140.07;;;131.23;;
39222;SDS011;24936;46.328;11.026;2023-08-31T06:19:47;184.73;;;172.23;;
39222;SDS011;24936;46.328;11.026;2023-08-31T06:22:12;132.98;;;123.93;;
39222;SDS011;24936;46.328;11.026;2023-08-31T06:24:38;112.10;;;105.30;;
39222;SDS011;24936;46.328;11.026;2023-08-31T06:27:03;112.27;;;105.50;;
39222;SDS011;24936;46.328;11.026;2023-08-31T06:29:29;132.43;;;123.85;;
39222;SDS011;24936;46.328;11.026;2023-08-31T06:31:54;138.07;;;129.43;;
39222;SDS011;24936;46.328;11.026;2023-08-31T06:34:20;153.20;;;143.48;;
39222;SDS011;24936;46.328;11.026;2023-08-31T06:36:46;117.45;;;110.35;;
39222;SDS011;24936;46.328;11.026;2023-08-31T06:39:11;123.03;;;115.63;;
39222;SDS011;24936;46.328;11.026;2023-08-31T06:41:36;142.20;;;133.30;;
39222;SDS011;24936;46.328;11.026;2023-08-31T06:44:02;132.47;;;124.17;;
39222;SDS011;24936;46.328;11.026;2023-08-31T06:46:30;136.40;;;128.00;;
39222;SDS011;24936;46.328;11.026;2023-08-31T06:48:59;143.00;;;134.23;;
39222;SDS011;24936;46.328;11.026;2023-08-31T06:51:25;146.48;;;137.48;;
39222;SDS011;24936;46.328;11.026;2023-08-31T06:53:50;140.40;;;131.77;;
39222;SDS011;24936;46.328;11.026;2023-08-31T06:56:16;158.25;;;148.05;;
39222;SDS011;24936;46.328;11.026;2023-08-31T06:58:42;166.07;;;155.27;;
39222;SDS011;24936;46.328;11.026;2023-08-31T07:01:08;177.32;;;165.82;;
39222;SDS011;24936;46.328;11.026;2023-08-31T07:03:33;185.15;;;173.27;;
39222;SDS011;24936;46.328;11.026;2023-08-31T07:05:59;209.43;;;195.00;;
39222;SDS011;24936;46.328;11.026;2023-08-31T07:08:25;258.65;;;239.82;;
39222;SDS011;24936;46.328;11.026;2023-08-31T07:10:55;238.43;;;222.85;;
39222;SDS011;24936;46.328;11.026;2023-08-31T07:13:20;326.20;;;303.07;;
39222;SDS011;24936;46.328;11.026;2023-08-31T07:15:46;215.50;;;201.67;;
39222;SDS011;24936;46.328;11.026;2023-08-31T07:18:13;248.68;;;232.63;;
39222;SDS011;24936;46.328;11.026;2023-08-31T07:23:05;235.70;;;220.95;;
39222;SDS011;24936;46.328;11.026;2023-08-31T07:25:30;268.00;;;250.90;;
39222;SDS011;24936;46.328;11.026;2023-08-31T07:27:55;262.87;;;246.00;;
39222;SDS011;24936;46.328;11.026;2023-08-31T07:30:21;279.20;;;260.90;;
39222;SDS011;24936;46.328;11.026;2023-08-31T07:32:46;283.93;;;265.23;;
39222;SDS011;24936;46.328;11.026;2023-08-31T07:35:12;269.05;;;251.35;;
39222;SDS011;24936;46.328;11.026;2023-08-31T07:37:37;292.88;;;273.15;;
39222;SDS011;24936;46.328;11.026;2023-08-31T07:40:03;296.20;;;276.60;;
39222;SDS011;24936;46.328;11.026;2023-08-31T07:42:33;277.70;;;259.67;;
39222;SDS011;24936;46.328;11.026;2023-08-31T07:44:59;273.23;;;255.25;;
39222;SDS011;24936;46.328;11.026;2023-08-31T07:47:24;262.93;;;246.00;;
39222;SDS011;24936;46.328;11.026;2023-08-31T07:49:50;262.63;;;245.33;;
39222;SDS011;24936;46.328;11.026;2023-08-31T07:52:15;234.95;;;219.70;;
39222;SDS011;24936;46.328;11.026;2023-08-31T07:54:41;230.18;;;215.05;;
39222;SDS011;24936;46.328;11.026;2023-08-31T07:57:06;184.75;;;172.65;;
39222;SDS011;24936;46.328;11.026;2023-08-31T07:59:31;198.77;;;185.53;;
39222;SDS011;24936;46.328;11.026;2023-08-31T08:01:57;144.75;;;135.40;;
39222;SDS011;24936;46.328;11.026;2023-08-31T08:04:22;170.13;;;158.82;;
39222;SDS011;24936;46.328;11.026;2023-08-31T08:09:14;153.55;;;143.27;;
39222;SDS011;24936;46.328;11.026;2023-08-31T08:11:40;123.35;;;115.47;;
39222;SDS011;24936;46.328;11.026;2023-08-31T08:14:07;169.10;;;158.00;;
39222;SDS011;24936;46.328;11.026;2023-08-31T08:16:32;145.70;;;136.75;;
39222;SDS011;24936;46.328;11.026;2023-08-31T08:19:00;185.25;;;173.38;;
39222;SDS011;24936;46.328;11.026;2023-08-31T08:21:26;214.32;;;200.27;;
39222;SDS011;24936;46.328;11.026;2023-08-31T08:23:51;194.02;;;181.93;;
39222;SDS011;24936;46.328;11.026;2023-08-31T08:26:17;209.98;;;196.75;;
39222;SDS011;24936;46.328;11.026;2023-08-31T08:28:42;194.15;;;182.02;;
39222;SDS011;24936;46.328;11.026;2023-08-31T08:31:08;201.23;;;188.68;;
39222;SDS011;24936;46.328;11.026;2023-08-31T08:33:33;144.38;;;135.57;;
39222;SDS011;24936;46.328;11.026;2023-08-31T08:35:59;140.35;;;131.75;;
39222;SDS011;24936;46.328;11.026;2023-08-31T08:38:25;148.55;;;139.50;;
39222;SDS011;24936;46.328;11.026;2023-08-31T08:40:51;139.45;;;131.05;;
39222;SDS011;24936;46.328;11.026;2023-08-31T08:43:16;136.32;;;128.07;;
39222;SDS011;24936;46.328;11.026;2023-08-31T08:45:52;161.35;;;151.57;;
39222;SDS011;24936;46.328;11.026;2023-08-31T08:48:18;128.15;;;120.35;;
39222;SDS011;24936;46.328;11.026;2023-08-31T08:50:46;137.25;;;128.98;;
39222;SDS011;24936;46.328;11.026;2023-08-31T08:53:12;128.20;;;120.38;;
39222;SDS011;24936;46.328;11.026;2023-08-31T08:55:40;180.80;;;169.23;;
39222;SDS011;24936;46.328;11.026;2023-08-31T08:58:06;143.05;;;134.35;;
39222;SDS011;24936;46.328;11.026;2023-08-31T09:00:32;207.45;;;194.02;;
39222;SDS011;24936;46.328;11.026;2023-08-31T09:05:24;233.38;;;218.45;;
39222;SDS011;24936;46.328;11.026;2023-08-31T09:10:38;137.18;;;128.95;;
39222;SDS011;24936;46.328;11.026;2023-08-31T09:13:12;134.65;;;126.53;;
39222;SDS011;24936;46.328;11.026;2023-08-31T09:15:41;168.55;;;158.50;;
39222;SDS011;24936;46.328;11.026;2023-08-31T09:20:49;230.45;;;216.13;;
39222;SDS011;24936;46.328;11.026;2023-08-31T09:23:15;225.85;;;212.57;;
39222;SDS011;24936;46.328;11.026;2023-08-31T09:25:42;163.57;;;154.15;;
39222;SDS011;24936;46.328;11.026;2023-08-31T09:28:27;126.50;;;119.13;;
39222;SDS011;24936;46.328;11.026;2023-08-31T09:31:03;197.05;;;185.70;;
39222;SDS011;24936;46.328;11.026;2023-08-31T09:33:30;176.30;;;165.98;;
39222;SDS011;24936;46.328;11.026;2023-08-31T09:35:57;123.80;;;116.53;;
39222;SDS011;24936;46.328;11.026;2023-08-31T09:38:25;135.45;;;126.80;;
39222;SDS011;24936;46.328;11.026;2023-08-31T09:40:50;169.15;;;159.55;;
39222;SDS011;24936;46.328;11.026;2023-08-31T09:43:22;164.80;;;155.43;;
39222;SDS011;24936;46.328;11.026;2023-08-31T09:45:48;132.45;;;124.70;;
39222;SDS011;24936;46.328;11.026;2023-08-31T09:48:15;167.45;;;157.32;;
39222;SDS011;24936;46.328;11.026;2023-08-31T09:50:41;146.23;;;137.73;;
39222;SDS011;24936;46.328;11.026;2023-08-31T09:53:11;66.93;;;63.22;;
39222;SDS011;24936;46.328;11.026;2023-08-31T09:55:38;126.30;;;119.18;;
39222;SDS011;24936;46.328;11.026;2023-08-31T09:58:06;94.13;;;88.65;;
39222;SDS011;24936;46.328;11.026;2023-08-31T10:00:33;84.90;;;80.15;;
39222;SDS011;24936;46.328;11.026;2023-08-31T10:03:02;68.35;;;64.57;;
39222;SDS011;24936;46.328;11.026;2023-08-31T10:05:28;80.70;;;75.75;;
39222;SDS011;24936;46.328;11.026;2023-08-31T10:07:54;104.18;;;98.20;;
39222;SDS011;24936;46.328;11.026;2023-08-31T10:10:20;128.15;;;120.65;;
39222;SDS011;24936;46.328;11.026;2023-08-31T10:12:49;81.35;;;76.70;;
39222;SDS011;24936;46.328;11.026;2023-08-31T10:15:16;118.93;;;111.57;;
39222;SDS011;24936;46.328;11.026;2023-08-31T10:17:43;200.88;;;188.82;;
39222;SDS011;24936;46.328;11.026;2023-08-31T10:20:09;96.03;;;90.25;;
39222;SDS011;24936;46.328;11.026;2023-08-31T10:22:36;142.77;;;134.15;;
39222;SDS011;24936;46.328;11.026;2023-08-31T10:25:06;178.00;;;167.68;;
39222;SDS011;24936;46.328;11.026;2023-08-31T10:27:44;140.88;;;132.32;;
39222;SDS011;24936;46.328;11.026;2023-08-31T10:30:19;113.05;;;106.47;;
39222;SDS011;24936;46.328;11.026;2023-08-31T10:35:49;133.55;;;125.53;;
39222;SDS011;24936;46.328;11.026;2023-08-31T10:38:22;174.85;;;164.00;;
39222;SDS011;24936;46.328;11.026;2023-08-31T10:43:36;150.18;;;141.32;;
39222;SDS011;24936;46.328;11.026;2023-08-31T10:46:28;95.93;;;90.07;;
39222;SDS011;24936;46.328;11.026;2023-08-31T10:51:24;131.75;;;124.15;;
39222;SDS011;24936;46.328;11.026;2023-08-31T10:54:05;97.97;;;92.28;;
39222;SDS011;24936;46.328;11.026;2023-08-31T10:56:32;115.47;;;108.65;;
39222;SDS011;24936;46.328;11.026;2023-08-31T10:58:58;55.33;;;52.17;;
39222;SDS011;24936;46.328;11.026;2023-08-31T11:01:50;65.07;;;61.45;;
39222;SDS011;24936;46.328;11.026;2023-08-31T11:04:21;76.85;;;72.55;;
39222;SDS011;24936;46.328;11.026;2023-08-31T11:06:47;110.93;;;104.68;;
39222;SDS011;24936;46.328;11.026;2023-08-31T11:09:20;52.97;;;50.10;;
39222;SDS011;24936;46.328;11.026;2023-08-31T11:11:46;67.93;;;64.20;;
39222;SDS011;24936;46.328;11.026;2023-08-31T11:14:13;72.55;;;68.57;;
39222;SDS011;24936;46.328;11.026;2023-08-31T11:16:40;49.00;;;46.40;;
39222;SDS011;24936;46.328;11.026;2023-08-31T11:19:06;69.00;;;65.20;;
39222;SDS011;24936;46.328;11.026;2023-08-31T11:21:32;41.95;;;39.75;;
39222;SDS011;24936;46.328;11.026;2023-08-31T11:23:58;61.83;;;58.42;;
39222;SDS011;24936;46.328;11.026;2023-08-31T11:26:26;50.50;;;47.75;;
39222;SDS011;24936;46.328;11.026;2023-08-31T11:28:51;53.75;;;50.85;;
39222;SDS011;24936;46.328;11.026;2023-08-31T11:31:23;48.33;;;45.72;;
39222;SDS011;24936;46.328;11.026;2023-08-31T11:33:49;102.07;;;96.25;;
39222;SDS011;24936;46.328;11.026;2023-08-31T11:36:15;61.10;;;57.75;;
39222;SDS011;24936;46.328;11.026;2023-08-31T11:38:43;53.22;;;50.35;;
39222;SDS011;24936;46.328;11.026;2023-08-31T11:41:09;68.88;;;65.03;;
39222;SDS011;24936;46.328;11.026;2023-08-31T11:43:35;97.65;;;92.03;;
39222;SDS011;24936;46.328;11.026;2023-08-31T11:46:01;102.90;;;97.00;;
39222;SDS011;24936;46.328;11.026;2023-08-31T11:48:28;84.40;;;79.65;;
39222;SDS011;24936;46.328;11.026;2023-08-31T11:50:54;85.65;;;80.78;;
39222;SDS011;24936;46.328;11.026;2023-08-31T11:53:20;56.05;;;52.97;;
39222;SDS011;24936;46.328;11.026;2023-08-31T11:55:49;51.90;;;49.00;;
39222;SDS011;24936;46.328;11.026;2023-08-31T11:58:16;67.63;;;63.72;;
39222;SDS011;24936;46.328;11.026;2023-08-31T12:00:42;57.55;;;54.42;;
39222;SDS011;24936;46.328;11.026;2023-08-31T12:03:09;68.07;;;64.30;;
39222;SDS011;24936;46.328;11.026;2023-08-31T12:05:47;51.55;;;48.75;;
39222;SDS011;24936;46.328;11.026;2023-08-31T12:08:16;66.40;;;62.67;;
39222;SDS011;24936;46.328;11.026;2023-08-31T12:10:50;116.05;;;109.00;;
39222;SDS011;24936;46.328;11.026;2023-08-31T12:13:16;74.13;;;69.70;;
39222;SDS011;24936;46.328;11.026;2023-08-31T12:15:41;66.18;;;62.53;;
39222;SDS011;24936;46.328;11.026;2023-08-31T12:18:07;55.72;;;52.67;;
39222;SDS011;24936;46.328;11.026;2023-08-31T12:20:33;63.03;;;59.45;;
39222;SDS011;24936;46.328;11.026;2023-08-31T12:23:06;64.45;;;60.78;;
39222;SDS011;24936;46.328;11.026;2023-08-31T12:25:33;229.23;;;213.15;;
39222;SDS011;24936;46.328;11.026;2023-08-31T12:27:58;83.65;;;78.80;;
39222;SDS011;24936;46.328;11.026;2023-08-31T12:30:24;104.03;;;97.88;;
39222;SDS011;24936;46.328;11.026;2023-08-31T12:32:50;72.15;;;68.10;;
39222;SDS011;24936;46.328;11.026;2023-08-31T12:35:17;115.25;;;108.40;;
39222;SDS011;24936;46.328;11.026;2023-08-31T12:37:43;89.50;;;84.50;;
39222;SDS011;24936;46.328;11.026;2023-08-31T12:40:08;81.10;;;76.55;;
39222;SDS011;24936;46.328;11.026;2023-08-31T12:42:35;98.25;;;92.65;;
39222;SDS011;24936;46.328;11.026;2023-08-31T12:45:01;141.35;;;132.75;;
39222;SDS011;24936;46.328;11.026;2023-08-31T12:47:30;90.28;;;85.13;;
39222;SDS011;24936;46.328;11.026;2023-08-31T12:49:56;70.10;;;66.13;;
39222;SDS011;24936;46.328;11.026;2023-08-31T12:52:21;121.93;;;115.03;;
39222;SDS011;24936;46.328;11.026;2023-08-31T12:54:47;65.30;;;61.60;;
39222;SDS011;24936;46.328;11.026;2023-08-31T12:57:12;131.45;;;123.85;;
39222;SDS011;24936;46.328;11.026;2023-08-31T12:59:38;86.80;;;81.78;;
39222;SDS011;24936;46.328;11.026;2023-08-31T13:02:03;71.82;;;67.78;;
39222;SDS011;24936;46.328;11.026;2023-08-31T13:04:32;45.70;;;43.25;;
39222;SDS011;24936;46.328;11.026;2023-08-31T13:06:57;70.63;;;66.78;;
39222;SDS011;24936;46.328;11.026;2023-08-31T13:09:23;66.03;;;61.92;;
39222;SDS011;24936;46.328;11.026;2023-08-31T13:11:48;143.95;;;134.00;;
39222;SDS011;24936;46.328;11.026;2023-08-31T13:14:14;69.20;;;65.30;;
39222;SDS011;24936;46.328;11.026;2023-08-31T13:16:40;79.93;;;75.38;;
39222;SDS011;24936;46.328;11.026;2023-08-31T13:19:06;38.08;;;36.03;;
39222;SDS011;24936;46.328;11.026;2023-08-31T13:21:32;58.55;;;55.10;;
39222;SDS011;24936;46.328;11.026;2023-08-31T13:23:57;37.28;;;35.20;;
39222;SDS011;24936;46.328;11.026;2023-08-31T13:26:25;39.15;;;37.05;;
39222;SDS011;24936;46.328;11.026;2023-08-31T13:28:51;59.35;;;56.00;;
39222;SDS011;24936;46.328;11.026;2023-08-31T13:31:16;66.32;;;62.53;;
39222;SDS011;24936;46.328;11.026;2023-08-31T13:33:42;62.50;;;58.92;;
39222;SDS011;24936;46.328;11.026;2023-08-31T13:36:08;71.43;;;67.10;;
39222;SDS011;24936;46.328;11.026;2023-08-31T13:38:34;84.35;;;79.53;;
39222;SDS011;24936;46.328;11.026;2023-08-31T13:41:01;73.20;;;69.03;;
39222;SDS011;24936;46.328;11.026;2023-08-31T13:43:28;57.58;;;54.38;;
39222;SDS011;24936;46.328;11.026;2023-08-31T13:45:54;46.22;;;43.67;;
39222;SDS011;24936;46.328;11.026;2023-08-31T13:48:20;103.35;;;97.13;;
39222;SDS011;24936;46.328;11.026;2023-08-31T13:50:47;95.63;;;89.85;;
39222;SDS011;24936;46.328;11.026;2023-08-31T13:53:13;49.88;;;47.00;;
39222;SDS011;24936;46.328;11.026;2023-08-31T13:55:38;47.67;;;45.05;;
39222;SDS011;24936;46.328;11.026;2023-08-31T13:58:04;130.45;;;122.78;;
39222;SDS011;24936;46.328;11.026;2023-08-31T14:00:33;36.63;;;34.67;;
39222;SDS011;24936;46.328;11.026;2023-08-31T14:02:59;74.10;;;70.00;;
39222;SDS011;24936;46.328;11.026;2023-08-31T14:05:28;87.28;;;82.32;;
39222;SDS011;24936;46.328;11.026;2023-08-31T14:07:57;68.30;;;64.38;;
39222;SDS011;24936;46.328;11.026;2023-08-31T14:10:23;70.22;;;66.03;;
39222;SDS011;24936;46.328;11.026;2023-08-31T14:12:49;81.47;;;76.82;;
39222;SDS011;24936;46.328;11.026;2023-08-31T14:15:15;73.95;;;69.63;;
39222;SDS011;24936;46.328;11.026;2023-08-31T14:17:41;83.93;;;78.90;;
39222;SDS011;24936;46.328;11.026;2023-08-31T14:20:07;116.90;;;109.93;;
39222;SDS011;24936;46.328;11.026;2023-08-31T14:22:36;75.95;;;71.50;;
39222;SDS011;24936;46.328;11.026;2023-08-31T14:25:12;90.15;;;84.95;;
39222;SDS011;24936;46.328;11.026;2023-08-31T14:27:38;128.20;;;120.53;;
39222;SDS011;24936;46.328;11.026;2023-08-31T14:30:04;95.25;;;89.78;;
39222;SDS011;24936;46.328;11.026;2023-08-31T14:32:31;109.43;;;103.15;;